Time;durP1;ratioP1;P1;durP2;ratioP2;P2;SDS_P1;SDS_P2;PMS_P1;PMS_P2;Temp;Humidity;BMP_temperature;BMP_pressure;BME280_temperature;BME280_humidity;BME280_pressure;Samples;Min_cycle;Max_cycle;Signal;HPM_P1;HPM_P2
2022/09/14 00:00:55;;;;;;;7.97;3.17;;;;;;;;;;5064761;28;20060;-78
2022/09/14 00:03:20;;;;;;;7.90;3.17;;;;;;;;;;5064510;28;20339;-78
2022/09/14 00:05:46;;;;;;;7.72;3.38;;;;;;;;;;5064652;28;20253;-78
2022/09/14 00:08:12;;;;;;;6.97;3.20;;;;;;;;;;5064417;28;20027;-80
2022/09/14 00:10:44;;;;;;;6.10;2.85;;;;;;;;;;5064440;28;20044;-79
2022/09/14 00:13:11;;;;;;;10.00;3.10;;;;;;;;;;5063187;28;20020;-79
2022/09/14 00:15:38;;;;;;;9.70;3.28;;;;;;;;;;5064278;28;20024;-80
2022/09/14 00:18:05;;;;;;;9.35;3.17;;;;;;;;;;5063056;28;20209;-79
2022/09/14 00:20:31;;;;;;;8.32;2.80;;;;;;;;;;5064257;28;20084;-80
2022/09/14 00:22:56;;;;;;;6.75;3.22;;;;;;;;;;5064252;28;20016;-80
2022/09/14 00:25:22;;;;;;;11.48;3.22;;;;;;;;;;5064046;28;20021;-80
2022/09/14 00:27:47;;;;;;;6.93;3.20;;;;;;;;;;5064020;28;20052;-79
2022/09/14 00:30:12;;;;;;;5.20;2.95;;;;;;;;;;5064191;28;20087;-80
2022/09/14 00:32:38;;;;;;;8.93;3.22;;;;;;;;;;5064039;28;20029;-80
2022/09/14 00:35:04;;;;;;;8.27;3.13;;;;;;;;;;5063483;28;20033;-79
2022/09/14 00:37:29;;;;;;;8.93;3.20;;;;;;;;;;5063537;28;20379;-80
2022/09/14 00:39:54;;;;;;;5.18;3.05;;;;;;;;;;5064097;28;20033;-80
2022/09/14 00:42:20;;;;;;;7.72;3.10;;;;;;;;;;5063980;28;20028;-79
2022/09/14 00:44:45;;;;;;;9.40;3.70;;;;;;;;;;5063977;28;20341;-80
2022/09/14 00:47:11;;;;;;;6.68;3.40;;;;;;;;;;5063870;28;20195;-80
2022/09/14 00:49:39;;;;;;;9.40;3.50;;;;;;;;;;5063856;28;20029;-80
2022/09/14 00:52:20;;;;;;;8.20;3.17;;;;;;;;;;5063774;28;20025;-80
2022/09/14 00:54:49;;;;;;;8.25;3.22;;;;;;;;;;5063712;28;20205;-80
2022/09/14 00:57:16;;;;;;;10.20;3.58;;;;;;;;;;5063719;28;20025;-80
2022/09/14 00:59:43;;;;;;;8.98;3.50;;;;;;;;;;5063722;28;20260;-81
2022/09/14 01:02:10;;;;;;;8.77;3.30;;;;;;;;;;5063718;28;20024;-81
2022/09/14 01:04:36;;;;;;;10.55;3.47;;;;;;;;;;5062559;28;20239;-80
2022/09/14 01:07:07;;;;;;;9.27;3.40;;;;;;;;;;5063595;28;20340;-80
2022/09/14 01:09:44;;;;;;;6.93;3.47;;;;;;;;;;5063602;28;20093;-80
2022/09/14 01:12:22;;;;;;;10.40;3.33;;;;;;;;;;5063530;28;20055;-80
2022/09/14 01:15:08;;;;;;;6.82;3.50;;;;;;;;;;5062432;28;20032;-80
2022/09/14 01:17:38;;;;;;;7.28;3.70;;;;;;;;;;5062931;28;20017;-80
2022/09/14 01:20:24;;;;;;;7.65;4.00;;;;;;;;;;5063612;28;20021;-80
2022/09/14 01:22:58;;;;;;;12.55;5.65;;;;;;;;;;5063611;28;20044;-79
2022/09/14 01:25:55;;;;;;;15.27;6.43;;;;;;;;;;5063460;28;20029;-80
2022/09/14 01:28:36;;;;;;;14.20;6.80;;;;;;;;;;5054683;28;20041;-81
2022/09/14 01:31:08;;;;;;;15.70;7.65;;;;;;;;;;5063508;28;20029;-80
2022/09/14 01:33:42;;;;;;;15.30;8.13;;;;;;;;;;5062298;28;20048;-80
2022/09/14 01:36:11;;;;;;;19.67;8.80;;;;;;;;;;5063432;28;20041;-80
2022/09/14 01:38:41;;;;;;;18.50;9.45;;;;;;;;;;5063434;28;20021;-80
2022/09/14 01:41:10;;;;;;;21.35;9.27;;;;;;;;;;5063533;28;20208;-80
2022/09/14 01:43:56;;;;;;;14.73;9.10;;;;;;;;;;5063235;28;20123;-80
2022/09/14 01:46:30;;;;;;;19.17;8.63;;;;;;;;;;5063277;28;20021;-79
2022/09/14 01:49:12;;;;;;;13.18;8.05;;;;;;;;;;5067097;28;20017;-79
2022/09/14 01:51:44;;;;;;;15.90;6.18;;;;;;;;;;5067118;28;20107;-80
2022/09/14 01:54:19;;;;;;;9.90;4.13;;;;;;;;;;5067022;28;20027;-79
2022/09/14 01:56:52;;;;;;;11.05;4.00;;;;;;;;;;5065783;28;20316;-80
2022/09/14 01:59:23;;;;;;;7.70;3.60;;;;;;;;;;5067005;28;20036;-80
2022/09/14 02:01:53;;;;;;;8.77;3.80;;;;;;;;;;5066936;28;20062;-80
2022/09/14 02:04:27;;;;;;;10.35;3.80;;;;;;;;;;5065607;28;20194;-80
2022/09/14 02:06:55;;;;;;;9.13;3.60;;;;;;;;;;5066653;28;20028;-79
2022/09/14 02:09:25;;;;;;;9.35;3.22;;;;;;;;;;5065839;28;20032;-79
2022/09/14 02:11:51;;;;;;;6.40;3.30;;;;;;;;;;5066697;28;20204;-80
2022/09/14 02:14:16;;;;;;;7.53;3.58;;;;;;;;;;5066819;28;20021;-80
2022/09/14 02:16:44;;;;;;;7.95;3.65;;;;;;;;;;5065435;28;20017;-80
2022/09/14 02:19:11;;;;;;;7.60;3.65;;;;;;;;;;5066676;28;20028;-79
2022/09/14 02:21:37;;;;;;;11.00;3.80;;;;;;;;;;5066475;28;20044;-79
2022/09/14 02:24:03;;;;;;;10.73;3.28;;;;;;;;;;5066419;28;20029;-79
2022/09/14 02:26:29;;;;;;;8.63;3.22;;;;;;;;;;5066362;28;20025;-80
2022/09/14 02:28:56;;;;;;;11.43;3.45;;;;;;;;;;5065172;28;20075;-79
2022/09/14 02:31:47;;;;;;;9.50;3.50;;;;;;;;;;5066414;28;20025;-80
2022/09/14 02:34:27;;;;;;;6.45;3.20;;;;;;;;;;5058090;28;20041;-80
2022/09/14 02:37:10;;;;;;;9.32;3.17;;;;;;;;;;5066140;28;20041;-80
2022/09/14 02:39:42;;;;;;;9.70;3.45;;;;;;;;;;5066176;28;20025;-80
2022/09/14 02:42:14;;;;;;;7.13;2.92;;;;;;;;;;5066149;28;20067;-79
2022/09/14 02:44:39;;;;;;;4.68;2.97;;;;;;;;;;5066378;28;20025;-79
2022/09/14 02:47:16;;;;;;;8.85;3.20;;;;;;;;;;5065979;28;20036;-79
2022/09/14 02:50:06;;;;;;;7.18;3.10;;;;;;;;;;5065983;28;20041;-79
2022/09/14 02:52:38;;;;;;;11.43;3.22;;;;;;;;;;5066165;28;20020;-79
2022/09/14 02:55:09;;;;;;;8.60;2.72;;;;;;;;;;5065916;28;20025;-79
2022/09/14 02:58:01;;;;;;;7.45;3.00;;;;;;;;;;5065810;28;20025;-79
2022/09/14 03:00:31;;;;;;;7.90;2.85;;;;;;;;;;5065541;28;20083;-79
2022/09/14 03:02:57;;;;;;;8.90;2.88;;;;;;;;;;5064693;28;20032;-80
2022/09/14 03:05:22;;;;;;;8.20;2.80;;;;;;;;;;5065678;28;20095;-79
2022/09/14 03:07:48;;;;;;;7.63;2.90;;;;;;;;;;5064387;28;20025;-79
2022/09/14 03:10:13;;;;;;;9.57;2.65;;;;;;;;;;5065535;28;20264;-79
2022/09/14 03:12:38;;;;;;;6.22;2.40;;;;;;;;;;5065431;28;20017;-79
2022/09/14 03:15:05;;;;;;;10.90;2.90;;;;;;;;;;5065529;28;20024;-79
2022/09/14 03:17:30;;;;;;;7.13;2.90;;;;;;;;;;5065505;28;20021;-79
2022/09/14 03:19:56;;;;;;;8.32;2.80;;;;;;;;;;5065531;28;20138;-79
2022/09/14 03:22:21;;;;;;;7.97;2.70;;;;;;;;;;5064216;28;20025;-79
2022/09/14 03:24:46;;;;;;;6.85;2.60;;;;;;;;;;5065313;28;20087;-79
2022/09/14 03:27:12;;;;;;;9.98;2.90;;;;;;;;;;5065181;28;20096;-79
2022/09/14 03:29:37;;;;;;;7.00;3.05;;;;;;;;;;5065264;28;20021;-79
2022/09/14 03:32:02;;;;;;;7.78;2.80;;;;;;;;;;5065161;28;20028;-79
2022/09/14 03:34:28;;;;;;;7.07;3.00;;;;;;;;;;5065183;28;20066;-80
2022/09/14 03:36:53;;;;;;;5.30;2.67;;;;;;;;;;5065023;28;20032;-80
2022/09/14 03:39:18;;;;;;;7.82;3.03;;;;;;;;;;5065091;28;20074;-79
2022/09/14 03:41:44;;;;;;;9.10;3.00;;;;;;;;;;5065060;28;20213;-80
2022/09/14 03:44:09;;;;;;;7.80;2.88;;;;;;;;;;5064931;28;20219;-80
2022/09/14 03:46:34;;;;;;;8.10;2.88;;;;;;;;;;5064763;28;20021;-79
2022/09/14 03:49:00;;;;;;;10.65;3.30;;;;;;;;;;5064722;28;20049;-78
2022/09/14 03:51:25;;;;;;;8.43;2.90;;;;;;;;;;5064977;28;20017;-79
2022/09/14 03:53:51;;;;;;;9.32;3.80;;;;;;;;;;5064802;28;20088;-79
2022/09/14 03:56:18;;;;;;;9.65;3.15;;;;;;;;;;5064706;28;20017;-79
2022/09/14 03:58:45;;;;;;;6.97;3.20;;;;;;;;;;5064932;28;20029;-79
2022/09/14 04:01:14;;;;;;;7.20;2.80;;;;;;;;;;5064734;28;20016;-79
2022/09/14 04:03:40;;;;;;;7.78;3.00;;;;;;;;;;5064644;28;20021;-79
2022/09/14 04:06:06;;;;;;;6.72;3.20;;;;;;;;;;5064393;28;20021;-79
2022/09/14 04:08:33;;;;;;;7.38;2.63;;;;;;;;;;5064398;28;20028;-79
2022/09/14 04:10:59;;;;;;;6.40;2.80;;;;;;;;;;5064374;28;20336;-79
2022/09/14 04:13:25;;;;;;;10.23;2.80;;;;;;;;;;5064434;28;20084;-79
2022/09/14 04:15:58;;;;;;;7.68;2.65;;;;;;;;;;5064406;28;20021;-79
2022/09/14 04:18:24;;;;;;;4.95;2.50;;;;;;;;;;5064382;28;20024;-79
2022/09/14 04:21:02;;;;;;;9.35;2.67;;;;;;;;;;5064160;28;20025;-79
2022/09/14 04:23:27;;;;;;;7.53;2.67;;;;;;;;;;5064163;28;20044;-79
2022/09/14 04:25:53;;;;;;;6.55;2.53;;;;;;;;;;5079685;28;20321;-79
2022/09/14 04:28:20;;;;;;;7.28;2.80;;;;;;;;;;5064010;28;20032;-79
2022/09/14 04:31:01;;;;;;;7.35;2.90;;;;;;;;;;5064199;28;20059;-79
2022/09/14 04:33:31;;;;;;;6.75;2.70;;;;;;;;;;5064058;28;20096;-79
2022/09/14 04:35:58;;;;;;;7.40;2.65;;;;;;;;;;5063805;28;20048;-79
2022/09/14 04:38:24;;;;;;;8.35;3.00;;;;;;;;;;5063697;28;20084;-79
2022/09/14 04:40:49;;;;;;;9.85;2.67;;;;;;;;;;5064063;28;20032;-79
2022/09/14 04:43:15;;;;;;;8.63;2.78;;;;;;;;;;5064149;28;20045;-79
2022/09/14 04:45:41;;;;;;;7.93;2.58;;;;;;;;;;5063886;28;20215;-79
2022/09/14 04:48:06;;;;;;;6.22;2.40;;;;;;;;;;5063743;28;20032;-79
2022/09/14 04:50:31;;;;;;;7.38;2.67;;;;;;;;;;5063814;28;20023;-79
2022/09/14 04:52:57;;;;;;;8.35;2.90;;;;;;;;;;5063816;28;20080;-78
2022/09/14 04:55:23;;;;;;;8.98;3.22;;;;;;;;;;5063771;28;20131;-79
2022/09/14 04:57:49;;;;;;;7.07;2.80;;;;;;;;;;5063629;28;20079;-79
2022/09/14 05:00:15;;;;;;;4.85;2.45;;;;;;;;;;5063919;28;20025;-79
2022/09/14 05:02:41;;;;;;;12.48;7.38;;;;;;;;;;5063661;28;20066;-77
2022/09/14 05:05:07;;;;;;;7.38;3.25;;;;;;;;;;5063774;28;20340;-79
2022/09/14 05:07:32;;;;;;;8.55;3.40;;;;;;;;;;5063523;28;20036;-79
2022/09/14 05:09:58;;;;;;;10.07;3.80;;;;;;;;;;5063573;28;20021;-79
2022/09/14 05:12:23;;;;;;;12.45;3.38;;;;;;;;;;5063666;28;20320;-81
2022/09/14 05:14:49;;;;;;;9.32;3.10;;;;;;;;;;5063505;28;20100;-80
2022/09/14 05:17:14;;;;;;;9.90;3.30;;;;;;;;;;5063581;28;20059;-80
2022/09/14 05:19:39;;;;;;;7.32;2.95;;;;;;;;;;5063543;28;20021;-79
2022/09/14 05:22:04;;;;;;;8.38;3.40;;;;;;;;;;5064776;28;20078;-78
2022/09/14 05:24:30;;;;;;;14.43;4.57;;;;;;;;;;5067540;28;20245;-79
2022/09/14 05:26:55;;;;;;;7.07;3.70;;;;;;;;;;5067500;28;20025;-79
2022/09/14 05:29:20;;;;;;;9.50;4.20;;;;;;;;;;5067434;28;20025;-78
2022/09/14 05:31:46;;;;;;;14.23;4.00;;;;;;;;;;5066090;28;20036;-77
2022/09/14 05:34:12;;;;;;;13.23;3.47;;;;;;;;;;5067327;28;20032;-79
2022/09/14 05:36:39;;;;;;;12.02;3.83;;;;;;;;;;5067290;28;20041;-80
2022/09/14 05:39:05;;;;;;;9.85;3.90;;;;;;;;;;5067152;28;20075;-78
2022/09/14 05:41:30;;;;;;;11.30;3.60;;;;;;;;;;5067166;28;20025;-77
2022/09/14 05:43:58;;;;;;;11.98;4.28;;;;;;;;;;5067057;28;20198;-77
2022/09/14 05:46:23;;;;;;;9.90;3.80;;;;;;;;;;5066917;28;20021;-78
2022/09/14 05:48:50;;;;;;;13.25;3.90;;;;;;;;;;5066800;28;20021;-79
2022/09/14 05:51:26;;;;;;;9.00;3.88;;;;;;;;;;5066058;28;20055;-79
2022/09/14 05:53:54;;;;;;;8.35;3.45;;;;;;;;;;5066902;28;20025;-79
2022/09/14 05:56:22;;;;;;;9.90;3.72;;;;;;;;;;5066780;28;20127;-78
2022/09/14 05:58:48;;;;;;;10.95;3.67;;;;;;;;;;5066095;28;20088;-79
2022/09/14 06:01:21;;;;;;;10.38;4.13;;;;;;;;;;5066771;28;20021;-79
2022/09/14 06:03:48;;;;;;;9.25;3.70;;;;;;;;;;5066564;28;20021;-79
2022/09/14 06:06:16;;;;;;;10.18;3.70;;;;;;;;;;5065101;28;20220;-79
2022/09/14 06:08:42;;;;;;;13.73;3.67;;;;;;;;;;5066080;28;20021;-79
2022/09/14 06:11:14;;;;;;;10.20;3.40;;;;;;;;;;5066363;28;20021;-79
2022/09/14 06:13:40;;;;;;;8.13;3.55;;;;;;;;;;5066569;28;20028;-79
2022/09/14 06:16:09;;;;;;;9.98;3.67;;;;;;;;;;5066516;28;20025;-80
2022/09/14 06:18:36;;;;;;;12.45;3.60;;;;;;;;;;5066491;28;20028;-80
2022/09/14 06:21:02;;;;;;;9.18;3.85;;;;;;;;;;5066051;28;20086;-80
2022/09/14 06:23:28;;;;;;;11.35;3.78;;;;;;;;;;5066227;28;20186;-80
2022/09/14 06:25:55;;;;;;;7.28;3.55;;;;;;;;;;5066162;28;20066;-79
2022/09/14 06:28:22;;;;;;;12.70;4.18;;;;;;;;;;5066250;28;20040;-79
2022/09/14 06:30:48;;;;;;;7.88;3.72;;;;;;;;;;5066110;28;20025;-77
2022/09/14 06:33:13;;;;;;;9.68;3.97;;;;;;;;;;5065025;28;20023;-78
2022/09/14 06:35:40;;;;;;;11.98;4.03;;;;;;;;;;5065880;28;20086;-78
2022/09/14 06:38:06;;;;;;;11.20;3.53;;;;;;;;;;5066147;28;20028;-77
2022/09/14 06:40:31;;;;;;;11.32;4.53;;;;;;;;;;5066134;28;20025;-77
2022/09/14 06:43:01;;;;;;;10.55;3.90;;;;;;;;;;5065967;28;20025;-79
2022/09/14 06:45:29;;;;;;;11.50;3.97;;;;;;;;;;5065051;28;20032;-78
2022/09/14 06:47:54;;;;;;;9.48;3.83;;;;;;;;;;5065927;28;20108;-79
2022/09/14 06:50:20;;;;;;;12.32;3.83;;;;;;;;;;5065838;28;20025;-79
2022/09/14 06:52:45;;;;;;;11.23;3.67;;;;;;;;;;5065847;28;20025;-79
2022/09/14 06:55:10;;;;;;;7.25;3.70;;;;;;;;;;5065757;28;20025;-79
2022/09/14 06:57:36;;;;;;;10.82;3.72;;;;;;;;;;5064548;28;20056;-80
2022/09/14 07:00:03;;;;;;;10.48;3.70;;;;;;;;;;5065543;28;20085;-79
2022/09/14 07:02:28;;;;;;;10.32;3.70;;;;;;;;;;5065564;28;20028;-79
2022/09/14 07:04:54;;;;;;;12.57;3.60;;;;;;;;;;5065562;28;20024;-79
2022/09/14 07:07:19;;;;;;;16.80;4.15;;;;;;;;;;5065535;28;20025;-79
2022/09/14 07:09:45;;;;;;;10.20;3.80;;;;;;;;;;5065630;28;20317;-79
2022/09/14 07:12:10;;;;;;;10.20;4.20;;;;;;;;;;5065281;28;20027;-79
2022/09/14 07:14:37;;;;;;;8.07;3.60;;;;;;;;;;5065303;28;20055;-79
2022/09/14 07:17:02;;;;;;;10.68;4.00;;;;;;;;;;5065287;28;20079;-79
2022/09/14 07:19:28;;;;;;;11.45;4.00;;;;;;;;;;5065190;28;20017;-80
2022/09/14 07:21:53;;;;;;;11.32;3.78;;;;;;;;;;5065340;28;20107;-79
2022/09/14 07:24:18;;;;;;;8.48;3.70;;;;;;;;;;5065233;28;20021;-79
2022/09/14 07:26:44;;;;;;;7.35;3.80;;;;;;;;;;5065073;28;20036;-80
2022/09/14 07:29:16;;;;;;;8.18;3.30;;;;;;;;;;5064017;28;20309;-79
2022/09/14 07:31:47;;;;;;;10.55;3.70;;;;;;;;;;5065040;28;20025;-79
2022/09/14 07:34:12;;;;;;;9.40;3.35;;;;;;;;;;5064720;28;20029;-80
2022/09/14 07:36:39;;;;;;;7.60;3.28;;;;;;;;;;5064780;28;20081;-79
2022/09/14 07:39:06;;;;;;;9.52;3.45;;;;;;;;;;5065147;28;20028;-80
2022/09/14 07:41:33;;;;;;;8.18;3.50;;;;;;;;;;5064843;28;20021;-79
2022/09/14 07:44:00;;;;;;;7.63;3.50;;;;;;;;;;5063660;28;20021;-79
2022/09/14 07:46:27;;;;;;;10.57;3.42;;;;;;;;;;5064538;28;20021;-80
2022/09/14 07:48:58;;;;;;;8.73;3.60;;;;;;;;;;5063565;28;20025;-80
2022/09/14 07:51:25;;;;;;;10.88;3.70;;;;;;;;;;5063539;28;20043;-80
2022/09/14 07:53:50;;;;;;;11.07;3.33;;;;;;;;;;5064715;28;20017;-80
2022/09/14 07:56:16;;;;;;;8.70;4.00;;;;;;;;;;5064691;28;20023;-80
2022/09/14 07:58:42;;;;;;;11.45;4.30;;;;;;;;;;5064538;28;20224;-79
2022/09/14 08:01:11;;;;;;;8.40;4.20;;;;;;;;;;5064528;28;20070;-81
2022/09/14 08:03:40;;;;;;;9.10;4.20;;;;;;;;;;5064220;28;20088;-79
2022/09/14 08:06:14;;;;;;;13.13;4.32;;;;;;;;;;5064220;28;20029;-81
2022/09/14 08:08:43;;;;;;;12.18;4.53;;;;;;;;;;5064268;28;20146;-79
2022/09/14 08:11:30;;;;;;;8.82;4.10;;;;;;;;;;5064357;28;20032;-79
2022/09/14 08:14:00;;;;;;;8.88;4.00;;;;;;;;;;5064217;28;20217;-78
2022/09/14 08:16:27;;;;;;;7.38;3.70;;;;;;;;;;5063099;28;20108;-79
2022/09/14 08:18:58;;;;;;;11.32;4.00;;;;;;;;;;5064267;28;20025;-79
2022/09/14 08:21:25;;;;;;;7.03;3.60;;;;;;;;;;5064134;28;20021;-78
2022/09/14 08:23:51;;;;;;;9.57;3.40;;;;;;;;;;5063954;28;20260;-79
2022/09/14 08:26:19;;;;;;;7.25;3.92;;;;;;;;;;5064087;28;20021;-79
2022/09/14 08:28:46;;;;;;;8.65;3.50;;;;;;;;;;5063956;28;20031;-79
2022/09/14 08:31:14;;;;;;;9.57;3.83;;;;;;;;;;5063974;28;20025;-79
2022/09/14 08:33:43;;;;;;;10.23;3.40;;;;;;;;;;5064074;28;20209;-79
2022/09/14 08:36:10;;;;;;;7.68;3.35;;;;;;;;;;5063741;28;20051;-81
2022/09/14 08:38:36;;;;;;;7.80;3.13;;;;;;;;;;5062826;28;20036;-80
2022/09/14 08:41:27;;;;;;;9.40;3.10;;;;;;;;;;5062487;28;20193;-79
2022/09/14 08:43:54;;;;;;;7.10;3.17;;;;;;;;;;5062697;28;20032;-80
2022/09/14 08:46:31;;;;;;;6.13;3.35;;;;;;;;;;5063648;28;20108;-80
2022/09/14 08:48:58;;;;;;;7.38;3.17;;;;;;;;;;5063760;28;20025;-80
2022/09/14 08:51:24;;;;;;;11.00;3.10;;;;;;;;;;5063899;28;20017;-80
2022/09/14 08:53:52;;;;;;;7.70;3.17;;;;;;;;;;5063792;28;20075;-79
2022/09/14 08:56:22;;;;;;;7.57;3.17;;;;;;;;;;5063095;28;20017;-80
2022/09/14 08:58:50;;;;;;;5.68;3.00;;;;;;;;;;5063505;28;20024;-79
2022/09/14 09:01:35;;;;;;;6.82;3.13;;;;;;;;;;5062383;28;20217;-79
2022/09/14 09:04:12;;;;;;;6.90;3.03;;;;;;;;;;5063651;28;20205;-79
2022/09/14 09:07:06;;;;;;;8.98;3.15;;;;;;;;;;5063767;28;20032;-79
2022/09/14 09:09:51;;;;;;;5.28;2.75;;;;;;;;;;5060467;28;20248;-79
2022/09/14 09:12:21;;;;;;;7.88;2.78;;;;;;;;;;5063672;28;20044;-80
2022/09/14 09:14:54;;;;;;;8.40;2.72;;;;;;;;;;5063438;28;20082;-79
2022/09/14 09:17:38;;;;;;;6.50;2.83;;;;;;;;;;5063411;28;20201;-79
2022/09/14 09:20:25;;;;;;;6.80;2.80;;;;;;;;;;5063457;28;20021;-80
2022/09/14 09:23:10;;;;;;;9.43;3.03;;;;;;;;;;5063338;28;20024;-79
2022/09/14 09:25:49;;;;;;;6.10;2.80;;;;;;;;;;5063368;28;20212;-79
2022/09/14 09:28:15;;;;;;;6.55;2.60;;;;;;;;;;5063385;28;20029;-79
2022/09/14 09:30:41;;;;;;;8.13;2.60;;;;;;;;;;5063310;28;20190;-79
2022/09/14 09:33:14;;;;;;;4.88;2.58;;;;;;;;;;5063244;28;20055;-80
2022/09/14 09:35:40;;;;;;;8.32;2.60;;;;;;;;;;5063130;28;20028;-80
2022/09/14 09:38:14;;;;;;;5.95;2.60;;;;;;;;;;5063041;28;20033;-78
2022/09/14 09:40:45;;;;;;;7.47;2.55;;;;;;;;;;5062185;28;20029;-79
2022/09/14 09:43:17;;;;;;;9.65;2.83;;;;;;;;;;5063093;28;20029;-80
2022/09/14 09:46:06;;;;;;;6.28;2.70;;;;;;;;;;5063083;28;20213;-80
2022/09/14 09:48:37;;;;;;;6.13;2.83;;;;;;;;;;5063027;28;20031;-80
2022/09/14 09:51:14;;;;;;;5.43;2.80;;;;;;;;;;5063034;28;20029;-80
2022/09/14 09:53:55;;;;;;;4.70;2.50;;;;;;;;;;5063251;28;20024;-80
2022/09/14 09:56:27;;;;;;;6.05;2.50;;;;;;;;;;5062265;28;20313;-80
2022/09/14 09:58:53;;;;;;;7.15;2.40;;;;;;;;;;5063103;28;20217;-81
2022/09/14 10:01:31;;;;;;;5.85;2.92;;;;;;;;;;5061282;28;20029;-80
2022/09/14 10:04:05;;;;;;;8.40;2.60;;;;;;;;;;5063217;28;20209;-80
2022/09/14 10:06:31;;;;;;;6.40;3.30;;;;;;;;;;5062916;28;20017;-81
2022/09/14 10:08:57;;;;;;;5.45;2.50;;;;;;;;;;5063805;28;20029;-78
2022/09/14 10:11:36;;;;;;;5.72;3.17;;;;;;;;;;5065630;28;20029;-75
2022/09/14 10:14:23;;;;;;;6.97;2.65;;;;;;;;;;5066537;28;20089;-77
2022/09/14 10:16:48;;;;;;;3.85;2.42;;;;;;;;;;5066547;28;20254;-78
2022/09/14 10:19:22;;;;;;;4.93;2.30;;;;;;;;;;5066487;28;20021;-81
2022/09/14 10:22:04;;;;;;;4.88;2.53;;;;;;;;;;5066522;28;20025;-77
2022/09/14 10:24:33;;;;;;;4.75;2.42;;;;;;;;;;5066277;28;20029;-76
2022/09/14 10:26:58;;;;;;;5.22;2.50;;;;;;;;;;5065938;28;20028;-81
2022/09/14 10:29:34;;;;;;;5.82;2.15;;;;;;;;;;5066312;28;20025;-81
2022/09/14 10:32:30;;;;;;;5.28;2.30;;;;;;;;;;5066267;28;20025;-81
2022/09/14 10:34:56;;;;;;;5.93;2.50;;;;;;;;;;5061710;28;20090;-81
2022/09/14 10:37:45;;;;;;;5.97;2.58;;;;;;;;;;5064403;28;20052;-81
2022/09/14 10:40:24;;;;;;;5.95;2.65;;;;;;;;;;5064840;28;20028;-81
2022/09/14 10:43:07;;;;;;;7.10;2.67;;;;;;;;;;5064515;28;20052;-81
2022/09/14 10:45:38;;;;;;;9.23;3.00;;;;;;;;;;5065715;28;20024;-81
2022/09/14 10:48:05;;;;;;;5.43;2.75;;;;;;;;;;5065282;28;20060;-81
2022/09/14 10:50:50;;;;;;;4.78;2.40;;;;;;;;;;5064538;28;20036;-81
2022/09/14 10:53:27;;;;;;;5.68;2.30;;;;;;;;;;5064703;28;20100;-81
2022/09/14 10:56:27;;;;;;;7.10;2.60;;;;;;;;;;5064657;28;20025;-80
2022/09/14 10:59:15;;;;;;;5.18;2.20;;;;;;;;;;5064428;28;20036;-81
2022/09/14 11:01:51;;;;;;;5.95;2.17;;;;;;;;;;5057996;28;20052;-82
2022/09/14 11:04:36;;;;;;;3.83;2.00;;;;;;;;;;5065452;28;20025;-81
2022/09/14 11:07:17;;;;;;;4.82;2.30;;;;;;;;;;5064371;28;20033;-81
2022/09/14 11:09:52;;;;;;;4.35;1.95;;;;;;;;;;5064144;28;20214;-82
2022/09/14 11:12:25;;;;;;;4.63;2.17;;;;;;;;;;5065534;28;20039;-82
2022/09/14 11:15:09;;;;;;;5.00;2.20;;;;;;;;;;5065537;28;20027;-81
2022/09/14 11:17:42;;;;;;;6.15;2.30;;;;;;;;;;5065565;28;20092;-81
2022/09/14 11:20:29;;;;;;;4.88;2.30;;;;;;;;;;5064664;28;20021;-81
2022/09/14 11:23:25;;;;;;;6.47;2.17;;;;;;;;;;5065315;28;20268;-81
2022/09/14 11:25:59;;;;;;;5.65;2.30;;;;;;;;;;5063970;28;20082;-81
2022/09/14 11:28:32;;;;;;;6.30;2.63;;;;;;;;;;5065102;28;20028;-83
2022/09/14 11:31:01;;;;;;;5.15;2.30;;;;;;;;;;5065444;28;20053;-81
2022/09/14 11:33:42;;;;;;;4.13;2.10;;;;;;;;;;5065037;28;20020;-80
2022/09/14 11:36:29;;;;;;;5.63;2.15;;;;;;;;;;5064887;28;20040;-82
2022/09/14 11:39:03;;;;;;;9.27;2.10;;;;;;;;;;5064871;28;20027;-81
2022/09/14 11:41:47;;;;;;;5.47;1.70;;;;;;;;;;5065220;28;20021;-85
2022/09/14 11:44:22;;;;;;;2.75;1.60;;;;;;;;;;5064929;28;20456;-80
2022/09/14 11:47:00;;;;;;;8.23;1.80;;;;;;;;;;5065118;28;20027;-80
2022/09/14 11:49:38;;;;;;;2.80;1.75;;;;;;;;;;5064823;28;20021;-81
2022/09/14 11:52:19;;;;;;;3.40;1.73;;;;;;;;;;5064664;28;20044;-81
2022/09/14 11:54:46;;;;;;;5.03;1.90;;;;;;;;;;5064693;28;20021;-81
2022/09/14 11:57:21;;;;;;;6.53;1.83;;;;;;;;;;5064554;28;20229;-83
2022/09/14 11:59:53;;;;;;;5.35;1.90;;;;;;;;;;5064742;28;20049;-82
2022/09/14 12:02:21;;;;;;;3.60;2.05;;;;;;;;;;5064556;28;20017;-82
2022/09/14 12:05:08;;;;;;;5.28;2.00;;;;;;;;;;5064736;28;20052;-82
2022/09/14 12:07:42;;;;;;;6.80;2.10;;;;;;;;;;5064405;28;20025;-82
2022/09/14 12:10:16;;;;;;;4.90;1.95;;;;;;;;;;5064489;28;20021;-81
2022/09/14 12:12:47;;;;;;;3.25;1.73;;;;;;;;;;5064579;28;20013;-82
2022/09/14 12:15:24;;;;;;;3.60;1.83;;;;;;;;;;5064404;28;20020;-82
2022/09/14 12:18:06;;;;;;;7.15;1.83;;;;;;;;;;5064332;28;20028;-82
2022/09/14 12:20:37;;;;;;;5.03;2.10;;;;;;;;;;5064170;28;20029;-82
2022/09/14 12:23:11;;;;;;;3.72;1.90;;;;;;;;;;5064255;28;20031;-81
2022/09/14 12:25:38;;;;;;;4.80;1.85;;;;;;;;;;5064991;28;20021;-81
2022/09/14 12:28:36;;;;;;;7.00;1.92;;;;;;;;;;5064742;28;20052;-79
2022/09/14 12:31:01;;;;;;;4.90;1.90;;;;;;;;;;5062360;28;20244;-79
2022/09/14 12:33:35;;;;;;;4.85;2.00;;;;;;;;;;5063722;28;20312;-79
2022/09/14 12:36:05;;;;;;;5.32;1.80;;;;;;;;;;5063950;28;20048;-78
2022/09/14 12:38:31;;;;;;;5.93;1.70;;;;;;;;;;5062595;28;20036;-78
2022/09/14 12:41:14;;;;;;;11.65;1.83;;;;;;;;;;5063755;28;20017;-78
2022/09/14 12:43:39;;;;;;;3.63;1.40;;;;;;;;;;5063829;28;20028;-78
2022/09/14 12:46:30;;;;;;;5.40;1.60;;;;;;;;;;5064165;28;20066;-79
2022/09/14 12:49:21;;;;;;;3.72;1.73;;;;;;;;;;5063797;28;20066;-79
2022/09/14 12:51:48;;;;;;;4.22;1.38;;;;;;;;;;5063819;28;20025;-76
2022/09/14 12:54:16;;;;;;;2.78;1.42;;;;;;;;;;5063639;28;20021;-79
2022/09/14 12:57:00;;;;;;;3.03;1.40;;;;;;;;;;5063698;28;20020;-79
2022/09/14 12:59:37;;;;;;;4.70;1.70;;;;;;;;;;5063615;28;20023;-80
2022/09/14 13:02:30;;;;;;;3.88;1.40;;;;;;;;;;5063630;28;20017;-79
2022/09/14 13:04:57;;;;;;;3.95;1.58;;;;;;;;;;5063585;28;20017;-80
2022/09/14 13:07:30;;;;;;;4.03;1.52;;;;;;;;;;5063561;28;20048;-79
2022/09/14 13:09:58;;;;;;;4.47;1.20;;;;;;;;;;5063654;28;20020;-79
2022/09/14 13:12:37;;;;;;;9.13;1.88;;;;;;;;;;5063572;28;20325;-80
2022/09/14 13:15:27;;;;;;;5.00;1.40;;;;;;;;;;5063494;28;20028;-79
2022/09/14 13:18:00;;;;;;;5.38;1.25;;;;;;;;;;5063233;28;20045;-81
2022/09/14 13:20:27;;;;;;;2.45;1.33;;;;;;;;;;5062213;28;20024;-80
2022/09/14 13:22:52;;;;;;;3.47;1.38;;;;;;;;;;5062289;28;20432;-80
2022/09/14 13:25:25;;;;;;;4.07;1.40;;;;;;;;;;5063425;28;20028;-79
2022/09/14 13:27:51;;;;;;;2.92;1.50;;;;;;;;;;5062147;28;20101;-79
2022/09/14 13:30:20;;;;;;;5.32;1.60;;;;;;;;;;5063194;28;20025;-80
2022/09/14 13:32:48;;;;;;;6.75;1.85;;;;;;;;;;5062098;28;20036;-79
2022/09/14 13:35:37;;;;;;;3.00;1.50;;;;;;;;;;5063506;28;20028;-80
2022/09/14 13:38:29;;;;;;;6.35;1.63;;;;;;;;;;5062979;28;20337;-80
2022/09/14 13:41:03;;;;;;;3.17;1.50;;;;;;;;;;5062135;28;20033;-81
2022/09/14 13:43:28;;;;;;;4.50;1.70;;;;;;;;;;5063874;28;20070;-81
2022/09/14 13:45:54;;;;;;;3.28;1.45;;;;;;;;;;5067086;28;20029;-80
2022/09/14 13:48:20;;;;;;;4.50;1.20;;;;;;;;;;5066990;28;20032;-81
2022/09/14 13:50:50;;;;;;;3.45;1.40;;;;;;;;;;5067121;28;20084;-80
2022/09/14 13:53:44;;;;;;;3.65;1.40;;;;;;;;;;5066888;28;20028;-80
2022/09/14 13:56:22;;;;;;;3.60;1.48;;;;;;;;;;5066726;28;20017;-81
2022/09/14 13:58:50;;;;;;;4.68;1.50;;;;;;;;;;5065752;28;20092;-81
2022/09/14 14:01:26;;;;;;;4.65;1.52;;;;;;;;;;5066882;28;20055;-80
2022/09/14 14:03:52;;;;;;;3.80;1.20;;;;;;;;;;5066096;28;20100;-80
2022/09/14 14:06:20;;;;;;;2.60;1.20;;;;;;;;;;5066693;28;20020;-81
2022/09/14 14:08:56;;;;;;;3.17;1.40;;;;;;;;;;5066632;28;20029;-80
2022/09/14 14:11:30;;;;;;;4.53;1.20;;;;;;;;;;5066664;28;20032;-80
2022/09/14 14:14:18;;;;;;;4.35;1.15;;;;;;;;;;5066716;28;20036;-81
2022/09/14 14:17:12;;;;;;;4.30;1.30;;;;;;;;;;5065495;28;20108;-80
2022/09/14 14:19:39;;;;;;;3.30;1.40;;;;;;;;;;5066576;28;20025;-79
2022/09/14 14:22:13;;;;;;;3.45;1.20;;;;;;;;;;5066551;28;20027;-80
2022/09/14 14:24:40;;;;;;;3.78;1.30;;;;;;;;;;5066326;28;20025;-81
2022/09/14 14:27:05;;;;;;;2.92;1.20;;;;;;;;;;5066237;28;20025;-80
2022/09/14 14:29:31;;;;;;;3.00;1.20;;;;;;;;;;5065489;28;20092;-80
2022/09/14 14:31:57;;;;;;;3.08;1.10;;;;;;;;;;5066303;28;20025;-79
2022/09/14 14:34:27;;;;;;;4.63;1.30;;;;;;;;;;5065122;28;20262;-80
2022/09/14 14:36:54;;;;;;;2.78;1.15;;;;;;;;;;5064871;28;20221;-80
2022/09/14 14:39:22;;;;;;;2.40;1.10;;;;;;;;;;5064768;28;20029;-80
2022/09/14 14:41:48;;;;;;;3.67;1.10;;;;;;;;;;5064894;28;20055;-80
2022/09/14 14:44:27;;;;;;;3.83;1.20;;;;;;;;;;5065798;28;20340;-79
2022/09/14 14:46:53;;;;;;;2.90;1.23;;;;;;;;;;5064939;28;20040;-80
2022/09/14 14:49:22;;;;;;;2.17;1.00;;;;;;;;;;5065953;28;20032;-80
2022/09/14 14:51:48;;;;;;;2.58;1.10;;;;;;;;;;5065761;28;20024;-80
2022/09/14 14:54:16;;;;;;;2.70;1.10;;;;;;;;;;5063782;28;20017;-79
2022/09/14 14:56:43;;;;;;;5.10;1.10;;;;;;;;;;5065629;28;20028;-79
2022/09/14 14:59:24;;;;;;;7.60;1.20;;;;;;;;;;5065761;28;20032;-79
2022/09/14 15:01:52;;;;;;;2.42;1.02;;;;;;;;;;5065718;28;20025;-79
2022/09/14 15:04:18;;;;;;;2.95;1.10;;;;;;;;;;5065548;28;20287;-81